Time;durP1;ratioP1;P1;durP2;ratioP2;P2;SDS_P1;SDS_P2;PMS_P1;PMS_P2;Temp;Humidity;BMP_temperature;BMP_pressure;BME280_temperature;BME280_humidity;BME280_pressure;Samples;Min_cycle;Max_cycle;Signal;HPM_P1;HPM_P2
2024/01/26 00:00:19;;;;;;;16.55;6.25;;;7.50;99.50;;;;;;6243067;23;20067;-68
2024/01/26 00:03:05;;;;;;;19.63;5.88;;;7.50;99.50;;;;;;6240817;23;20050;-68
2024/01/26 00:05:51;;;;;;;15.13;5.20;;;7.50;99.50;;;;;;6240756;23;20091;-67
2024/01/26 00:08:37;;;;;;;11.25;4.53;;;7.50;99.60;;;;;;6240436;23;20647;-67
2024/01/26 00:11:23;;;;;;;14.93;4.55;;;7.50;99.60;;;;;;6240426;23;20004;-67
2024/01/26 00:14:10;;;;;;;14.57;5.50;;;7.50;99.50;;;;;;6240560;23;20012;-67
2024/01/26 00:16:55;;;;;;;16.65;6.07;;;7.50;99.60;;;;;;6240359;23;20019;-66
2024/01/26 00:19:41;;;;;;;16.85;6.43;;;7.40;99.60;;;;;;6240094;23;20042;-67
2024/01/26 00:22:27;;;;;;;14.00;5.10;;;7.50;99.60;;;;;;6241789;23;20007;-67
2024/01/26 00:25:13;;;;;;;15.50;4.72;;;7.50;99.60;;;;;;6219378;23;20016;-67
2024/01/26 00:27:59;;;;;;;15.15;4.93;;;7.50;99.60;;;;;;6240157;23;20019;-67
2024/01/26 00:30:45;;;;;;;19.17;5.13;;;7.50;99.80;;;;;;6240272;23;20019;-67
2024/01/26 00:33:32;;;;;;;12.38;5.35;;;7.50;99.70;;;;;;6241752;23;20492;-67
2024/01/26 00:36:18;;;;;;;13.02;5.22;;;7.50;99.60;;;;;;6240941;23;20016;-67
2024/01/26 00:39:04;;;;;;;14.60;5.70;;;7.50;99.70;;;;;;6241732;23;20019;-67
2024/01/26 00:41:50;;;;;;;14.82;4.53;;;7.40;99.60;;;;;;6240293;23;20083;-67
2024/01/26 00:44:37;;;;;;;13.35;5.28;;;7.40;99.60;;;;;;6239745;23;20004;-67
2024/01/26 00:47:22;;;;;;;17.55;5.68;;;7.40;99.60;;;;;;6239904;23;20056;-67
2024/01/26 00:50:09;;;;;;;19.17;6.68;;;7.40;99.60;;;;;;6239301;23;20016;-67
2024/01/26 00:52:55;;;;;;;15.93;4.93;;;7.30;99.60;;;;;;6220991;23;20367;-67
2024/01/26 00:55:41;;;;;;;14.85;5.18;;;7.30;99.60;;;;;;6240167;23;20020;-67
2024/01/26 00:58:27;;;;;;;15.50;4.75;;;7.20;99.70;;;;;;6242152;23;20449;-67
2024/01/26 01:01:13;;;;;;;14.40;6.38;;;7.20;99.60;;;;;;6239835;23;20453;-67
2024/01/26 01:03:59;;;;;;;15.15;5.78;;;7.20;99.70;;;;;;6241782;23;20515;-67
2024/01/26 01:06:45;;;;;;;20.13;5.88;;;7.10;99.70;;;;;;6239556;23;20008;-66
2024/01/26 01:09:31;;;;;;;14.85;5.43;;;7.10;99.70;;;;;;6240075;23;20317;-66
2024/01/26 01:12:17;;;;;;;10.20;5.18;;;7.00;99.70;;;;;;6242029;23;20082;-66
2024/01/26 01:15:04;;;;;;;13.30;5.90;;;7.00;99.80;;;;;;6240487;23;20012;-67
2024/01/26 01:17:50;;;;;;;13.35;5.75;;;7.00;99.80;;;;;;6239670;23;20016;-67
2024/01/26 01:20:36;;;;;;;12.32;6.25;;;6.90;99.80;;;;;;6219471;23;20352;-67
2024/01/26 01:23:21;;;;;;;16.10;5.88;;;6.90;99.80;;;;;;6241830;23;20433;-67
2024/01/26 01:26:08;;;;;;;15.00;5.95;;;6.90;99.90;;;;;;6239854;23;20337;-68
2024/01/26 01:28:54;;;;;;;19.58;6.18;;;6.80;99.90;;;;;;6240101;23;20012;-67
2024/01/26 01:31:40;;;;;;;21.58;6.97;;;6.80;99.90;;;;;;6240118;23;20043;-68
2024/01/26 01:34:26;;;;;;;17.63;5.78;;;6.80;99.90;;;;;;6240287;23;20008;-67
2024/01/26 01:37:11;;;;;;;14.30;6.55;;;6.70;99.90;;;;;;6238752;23;20353;-67
2024/01/26 01:39:57;;;;;;;15.95;5.75;;;6.60;99.90;;;;;;6243216;23;20392;-67
2024/01/26 01:42:44;;;;;;;18.00;5.80;;;6.70;99.90;;;;;;6241884;23;20433;-68
2024/01/26 01:45:30;;;;;;;17.65;5.07;;;6.60;99.90;;;;;;6241085;23;20004;-68
2024/01/26 01:48:16;;;;;;;12.25;4.68;;;6.50;99.90;;;;;;6242518;23;20052;-68
2024/01/26 01:51:04;;;;;;;16.02;5.55;;;6.50;99.90;;;;;;6243226;23;20008;-67
2024/01/26 01:53:50;;;;;;;12.93;5.35;;;6.60;99.90;;;;;;6243871;23;20047;-67
2024/01/26 01:56:39;;;;;;;14.15;5.28;;;6.50;99.90;;;;;;6221196;23;20043;-67
2024/01/26 01:59:25;;;;;;;15.05;5.45;;;6.50;99.90;;;;;;6242604;23;20340;-67
2024/01/26 02:02:11;;;;;;;15.57;6.40;;;6.50;99.90;;;;;;6240882;23;20019;-66
2024/01/26 02:04:57;;;;;;;17.23;5.60;;;6.40;99.90;;;;;;6241131;23;20008;-67
2024/01/26 02:07:48;;;;;;;11.60;6.00;;;6.40;99.90;;;;;;6241199;23;20303;-66
2024/01/26 02:10:34;;;;;;;13.38;4.78;;;6.40;99.90;;;;;;6242327;23;20012;-67
2024/01/26 02:13:20;;;;;;;16.98;6.18;;;6.40;99.90;;;;;;6243349;23;20008;-66
2024/01/26 02:16:06;;;;;;;11.55;5.68;;;6.40;99.90;;;;;;6241513;23;20004;-66
2024/01/26 02:18:52;;;;;;;14.70;5.20;;;6.30;99.90;;;;;;6243021;23;20063;-68
2024/01/26 02:21:41;;;;;;;17.73;6.80;;;6.30;99.90;;;;;;6241789;23;20008;-67
2024/01/26 02:24:27;;;;;;;12.38;5.30;;;6.20;99.90;;;;;;6221160;23;20389;-67
2024/01/26 02:27:13;;;;;;;19.27;5.35;;;6.20;99.90;;;;;;6241253;23;20012;-67
2024/01/26 02:29:59;;;;;;;18.20;7.15;;;6.10;99.90;;;;;;6241793;23;20012;-67
2024/01/26 02:32:45;;;;;;;13.45;5.25;;;6.10;99.90;;;;;;6241640;23;20035;-67
2024/01/26 02:35:31;;;;;;;12.32;4.93;;;6.10;99.90;;;;;;6241403;23;20066;-63
2024/01/26 02:38:16;;;;;;;19.20;8.05;;;6.10;99.90;;;;;;6239856;23;20079;-62
2024/01/26 02:41:03;;;;;;;13.07;5.45;;;6.00;99.90;;;;;;6241342;23;20012;-63
2024/01/26 02:43:50;;;;;;;18.50;6.50;;;6.00;99.90;;;;;;6240919;23;20512;-63
2024/01/26 02:46:36;;;;;;;16.35;6.15;;;6.00;99.90;;;;;;6241071;22;20016;-62
2024/01/26 02:49:22;;;;;;;17.42;6.47;;;6.00;99.90;;;;;;6239884;23;20020;-62
2024/01/26 02:52:08;;;;;;;18.45;7.05;;;5.90;99.90;;;;;;6253913;23;20162;-62
2024/01/26 02:54:54;;;;;;;18.45;5.75;;;5.90;99.90;;;;;;6259325;23;20011;-62
2024/01/26 02:57:40;;;;;;;13.63;5.80;;;5.90;99.90;;;;;;6240577;23;20023;-62
2024/01/26 03:00:26;;;;;;;16.67;6.53;;;5.90;99.90;;;;;;6241008;23;20001;-62
2024/01/26 03:03:12;;;;;;;17.70;6.85;;;5.90;99.90;;;;;;6242735;23;20088;-61
2024/01/26 03:05:57;;;;;;;16.38;6.15;;;5.90;99.90;;;;;;6242814;23;20008;-62
2024/01/26 03:08:44;;;;;;;15.88;5.78;;;5.90;99.90;;;;;;6240325;23;20510;-62
2024/01/26 03:11:40;;;;;;;13.73;6.30;;;5.90;99.90;;;;;;6243085;23;20501;-61
2024/01/26 03:14:26;;;;;;;14.95;6.40;;;5.90;99.90;;;;;;6242137;23;20080;-62
2024/01/26 03:17:12;;;;;;;15.43;6.68;;;5.90;99.90;;;;;;6240946;23;20455;-62
2024/01/26 03:19:58;;;;;;;17.27;6.85;;;5.90;99.90;;;;;;6240808;23;20032;-63
2024/01/26 03:22:44;;;;;;;17.20;6.45;;;5.80;99.90;;;;;;6242489;23;20038;-63
2024/01/26 03:25:30;;;;;;;12.40;5.45;;;5.90;99.90;;;;;;6240874;23;20009;-62
2024/01/26 03:28:16;;;;;;;16.10;5.55;;;5.70;99.90;;;;;;6241191;23;20074;-63
2024/01/26 03:31:02;;;;;;;15.75;6.95;;;5.80;99.90;;;;;;6240600;23;20027;-63
2024/01/26 03:33:47;;;;;;;22.02;6.60;;;5.70;99.90;;;;;;6240520;23;20039;-63
2024/01/26 03:36:33;;;;;;;13.48;6.88;;;5.80;99.90;;;;;;6242415;23;20150;-63
2024/01/26 03:39:19;;;;;;;15.80;6.88;;;5.80;99.90;;;;;;6240528;23;20441;-63
2024/01/26 03:42:06;;;;;;;11.68;5.55;;;5.80;99.90;;;;;;6239919;23;20058;-63
2024/01/26 03:44:51;;;;;;;20.13;6.97;;;5.80;99.90;;;;;;6240533;23;20012;-63
2024/01/26 03:47:38;;;;;;;20.52;6.72;;;5.80;99.90;;;;;;6241174;23;20016;-63
2024/01/26 03:50:24;;;;;;;16.92;6.50;;;5.80;99.90;;;;;;6241705;23;20437;-63
2024/01/26 03:53:10;;;;;;;15.73;6.35;;;5.80;99.90;;;;;;6240267;23;20318;-63
2024/01/26 03:55:56;;;;;;;19.15;6.32;;;5.80;99.90;;;;;;6241419;23;20189;-63
2024/01/26 03:58:44;;;;;;;10.18;5.82;;;5.80;99.90;;;;;;6239397;23;20020;-66
2024/01/26 04:01:30;;;;;;;14.95;5.75;;;5.80;99.90;;;;;;6241004;23;20004;-67
2024/01/26 04:04:16;;;;;;;13.57;6.75;;;5.80;99.90;;;;;;6240534;23;20031;-67
2024/01/26 04:07:02;;;;;;;16.38;6.60;;;5.80;99.90;;;;;;6242031;23;20014;-67
2024/01/26 04:09:48;;;;;;;28.63;9.68;;;5.90;99.90;;;;;;6241954;23;20012;-67
2024/01/26 04:12:34;;;;;;;20.73;7.57;;;5.80;99.90;;;;;;6240204;23;20012;-67
2024/01/26 04:15:20;;;;;;;16.60;6.28;;;5.90;99.90;;;;;;6240175;23;20005;-67
2024/01/26 04:18:06;;;;;;;13.50;6.65;;;5.90;99.90;;;;;;6242026;23;20456;-67
2024/01/26 04:20:52;;;;;;;23.10;7.07;;;5.90;99.90;;;;;;6240598;23;20039;-67
2024/01/26 04:23:38;;;;;;;18.17;7.47;;;5.80;99.90;;;;;;6240182;23;20016;-67
2024/01/26 04:26:24;;;;;;;17.33;7.68;;;5.90;99.90;;;;;;6242308;23;20004;-67
2024/01/26 04:29:10;;;;;;;15.52;8.45;;;5.90;99.90;;;;;;6240516;23;20087;-67
2024/01/26 04:31:56;;;;;;;25.77;8.75;;;5.90;99.90;;;;;;6240314;23;20009;-67
2024/01/26 04:34:42;;;;;;;23.88;8.38;;;5.90;99.90;;;;;;6241377;23;20016;-67
2024/01/26 04:37:28;;;;;;;19.33;7.75;;;6.00;99.90;;;;;;6218897;23;20064;-67
2024/01/26 04:40:14;;;;;;;17.65;8.63;;;5.90;99.90;;;;;;6242033;23;20421;-67
2024/01/26 04:43:00;;;;;;;14.80;7.18;;;6.00;99.90;;;;;;6240518;23;20008;-67
2024/01/26 04:45:46;;;;;;;16.83;7.72;;;6.00;99.90;;;;;;6240553;23;20015;-67
2024/01/26 04:48:32;;;;;;;17.75;8.38;;;6.00;99.90;;;;;;6242225;23;20019;-67
2024/01/26 04:51:18;;;;;;;17.15;7.28;;;6.00;99.90;;;;;;6239793;23;20614;-67
2024/01/26 04:54:04;;;;;;;13.43;7.50;;;6.00;99.90;;;;;;6240097;23;20011;-67
2024/01/26 04:56:50;;;;;;;18.17;7.22;;;6.00;99.90;;;;;;6238973;23;20004;-67
2024/01/26 04:59:36;;;;;;;19.08;7.55;;;6.00;99.90;;;;;;6240233;23;20043;-67
2024/01/26 05:02:22;;;;;;;19.92;9.38;;;6.00;99.90;;;;;;6241105;23;20464;-67
2024/01/26 05:05:09;;;;;;;19.60;6.93;;;6.00;99.90;;;;;;6243172;23;20004;-67
2024/01/26 05:07:55;;;;;;;15.27;7.15;;;6.00;99.90;;;;;;6241471;23;20016;-68
2024/01/26 05:10:41;;;;;;;15.70;7.47;;;6.00;99.90;;;;;;6239756;23;20008;-67
2024/01/26 05:13:27;;;;;;;17.70;7.05;;;6.00;99.90;;;;;;6242512;23;20483;-67
2024/01/26 05:16:13;;;;;;;17.05;6.97;;;6.00;99.90;;;;;;6242680;23;20464;-67
2024/01/26 05:18:59;;;;;;;16.17;7.22;;;6.00;99.90;;;;;;6242723;23;20102;-67
2024/01/26 05:21:45;;;;;;;17.10;6.72;;;6.00;99.90;;;;;;6241909;23;20512;-67
2024/01/26 05:24:31;;;;;;;14.77;6.25;;;6.00;99.90;;;;;;6244071;23;20437;-67
2024/01/26 05:27:17;;;;;;;15.73;6.93;;;6.00;99.90;;;;;;6242664;23;20047;-65
2024/01/26 05:30:03;;;;;;;20.67;5.97;;;6.00;99.90;;;;;;6243880;23;20087;-67
2024/01/26 05:32:49;;;;;;;16.35;6.85;;;6.00;99.90;;;;;;6221882;23;20008;-66
2024/01/26 05:35:35;;;;;;;18.40;6.65;;;6.00;99.90;;;;;;6241892;23;20005;-67
2024/01/26 05:38:20;;;;;;;14.25;6.45;;;6.10;99.90;;;;;;6239142;23;20392;-66
2024/01/26 05:41:06;;;;;;;13.93;6.18;;;6.10;99.90;;;;;;6245058;23;20557;-67
2024/01/26 05:43:52;;;;;;;13.48;6.47;;;6.10;99.90;;;;;;6250367;23;20139;-66
2024/01/26 05:46:38;;;;;;;13.35;6.47;;;6.10;99.90;;;;;;6263608;23;20039;-66
2024/01/26 05:49:25;;;;;;;12.63;5.38;;;6.10;99.90;;;;;;6226188;23;20062;-66
2024/01/26 05:52:11;;;;;;;14.35;7.35;;;6.10;99.90;;;;;;6241913;23;20134;-67
2024/01/26 05:54:57;;;;;;;14.32;5.82;;;6.20;99.90;;;;;;6243929;23;20105;-67
2024/01/26 05:57:43;;;;;;;15.55;6.75;;;6.20;99.90;;;;;;6244151;23;20081;-66
2024/01/26 06:00:29;;;;;;;14.65;5.95;;;6.20;99.90;;;;;;6241093;23;20009;-66
2024/01/26 06:03:15;;;;;;;16.08;6.85;;;6.20;99.90;;;;;;6243375;23;20000;-66
2024/01/26 06:06:01;;;;;;;17.20;6.72;;;6.20;99.90;;;;;;6241929;23;20012;-66
2024/01/26 06:08:48;;;;;;;14.20;6.43;;;6.20;99.90;;;;;;6241974;23;20012;-66
2024/01/26 06:11:34;;;;;;;17.25;6.05;;;6.20;99.90;;;;;;6241302;23;20020;-65
2024/01/26 06:14:20;;;;;;;17.05;6.18;;;6.20;99.90;;;;;;6243498;23;20008;-66
2024/01/26 06:17:06;;;;;;;13.77;6.07;;;6.30;99.90;;;;;;6239977;23;20016;-65
2024/01/26 06:19:52;;;;;;;18.35;6.50;;;6.30;99.90;;;;;;6221308;23;20012;-65
2024/01/26 06:22:38;;;;;;;13.65;6.75;;;6.20;99.90;;;;;;6241839;23;20019;-65
2024/01/26 06:25:25;;;;;;;18.00;6.78;;;6.20;99.90;;;;;;6241146;23;20019;-65
2024/01/26 06:28:10;;;;;;;10.35;6.13;;;6.20;99.90;;;;;;6241490;23;20015;-65
2024/01/26 06:30:56;;;;;;;15.20;6.72;;;6.20;99.90;;;;;;6241764;23;20087;-65
2024/01/26 06:33:42;;;;;;;15.23;6.70;;;6.20;99.90;;;;;;6241447;23;20011;-65
2024/01/26 06:36:28;;;;;;;14.57;6.20;;;6.20;99.90;;;;;;6241219;23;20012;-65
2024/01/26 06:39:14;;;;;;;22.17;7.35;;;6.20;99.90;;;;;;6240906;23;20030;-66
2024/01/26 06:42:00;;;;;;;19.77;6.70;;;6.20;99.90;;;;;;6241387;23;20032;-65
2024/01/26 06:44:46;;;;;;;19.38;6.20;;;6.10;99.90;;;;;;6241106;23;20012;-67
2024/01/26 06:47:32;;;;;;;11.20;5.35;;;6.10;99.90;;;;;;6240508;23;20020;-66
2024/01/26 06:50:18;;;;;;;16.67;8.25;;;6.10;99.90;;;;;;6241528;23;20046;-66
2024/01/26 06:53:04;;;;;;;14.38;7.03;;;6.00;99.90;;;;;;6241678;23;20004;-66
2024/01/26 06:55:50;;;;;;;15.95;7.78;;;6.00;99.90;;;;;;6242863;23;20008;-66
2024/01/26 06:58:36;;;;;;;16.95;6.47;;;6.00;99.90;;;;;;6241524;23;20024;-66
2024/01/26 07:01:22;;;;;;;16.63;6.00;;;6.00;99.90;;;;;;6241580;23;20012;-67
2024/01/26 07:04:08;;;;;;;15.93;7.35;;;5.90;99.90;;;;;;6241470;23;20143;-67
2024/01/26 07:06:54;;;;;;;15.10;7.22;;;5.90;99.90;;;;;;6241741;23;20034;-66
2024/01/26 07:09:40;;;;;;;19.13;8.48;;;5.90;99.90;;;;;;6241125;23;20008;-66
2024/01/26 07:12:25;;;;;;;12.07;7.07;;;5.90;99.90;;;;;;6242583;23;20059;-66
2024/01/26 07:15:11;;;;;;;22.42;8.05;;;5.80;99.90;;;;;;6240790;23;20015;-66
2024/01/26 07:17:57;;;;;;;13.93;6.90;;;5.80;99.90;;;;;;6242702;23;20016;-66
2024/01/26 07:20:43;;;;;;;12.50;6.90;;;5.80;99.90;;;;;;6238653;23;20023;-67
2024/01/26 07:23:29;;;;;;;15.32;6.25;;;5.80;99.90;;;;;;6240540;23;20099;-67
2024/01/26 07:26:19;;;;;;;18.38;7.75;;;5.80;99.90;;;;;;6240577;23;20335;-67
2024/01/26 07:29:05;;;;;;;16.73;6.22;;;5.80;99.90;;;;;;6241175;23;20074;-67
2024/01/26 07:31:51;;;;;;;26.05;7.80;;;5.70;99.90;;;;;;6242102;23;20019;-67
2024/01/26 07:34:37;;;;;;;14.40;6.55;;;5.70;99.90;;;;;;6241216;23;20053;-68
2024/01/26 07:37:23;;;;;;;16.10;6.90;;;5.80;99.90;;;;;;6240938;23;20024;-68
2024/01/26 07:40:09;;;;;;;15.23;7.35;;;5.80;99.90;;;;;;6240857;23;20012;-68
2024/01/26 07:42:55;;;;;;;14.30;7.57;;;5.80;99.90;;;;;;6239625;23;20012;-68
2024/01/26 07:45:41;;;;;;;18.20;7.68;;;5.80;99.90;;;;;;6241096;23;20012;-68
2024/01/26 07:48:27;;;;;;;18.00;7.28;;;5.90;99.90;;;;;;6218135;23;20023;-67
2024/01/26 07:51:13;;;;;;;22.70;7.82;;;5.90;99.90;;;;;;6242044;23;20449;-67
2024/01/26 07:53:59;;;;;;;19.00;7.80;;;5.90;99.90;;;;;;6239458;23;20038;-67
2024/01/26 07:56:45;;;;;;;15.98;8.07;;;6.00;99.90;;;;;;6241600;23;20385;-67
2024/01/26 07:59:31;;;;;;;19.70;8.27;;;6.00;99.90;;;;;;6242628;23;20042;-67
2024/01/26 08:02:17;;;;;;;14.65;6.47;;;6.10;99.90;;;;;;6239917;23;20414;-67
2024/01/26 08:05:04;;;;;;;22.05;7.32;;;6.10;99.90;;;;;;6241620;23;20032;-67
2024/01/26 08:07:50;;;;;;;14.73;6.85;;;6.20;99.90;;;;;;6242229;23;20368;-67
2024/01/26 08:10:35;;;;;;;15.02;7.60;;;6.30;99.90;;;;;;6242142;23;20381;-67
2024/01/26 08:13:21;;;;;;;18.27;6.78;;;6.30;99.90;;;;;;6242002;23;20022;-67
2024/01/26 08:16:13;;;;;;;12.30;7.32;;;6.40;99.90;;;;;;6241271;23;20039;-67
2024/01/26 08:18:59;;;;;;;17.85;7.18;;;6.50;99.90;;;;;;6241379;23;20023;-67
2024/01/26 08:21:45;;;;;;;18.67;7.50;;;6.50;99.90;;;;;;6241149;23;20012;-67
2024/01/26 08:24:31;;;;;;;15.70;7.28;;;6.60;99.90;;;;;;6219774;23;20231;-67
2024/01/26 08:27:17;;;;;;;14.70;6.32;;;6.70;99.90;;;;;;6240203;23;20051;-67
2024/01/26 08:30:04;;;;;;;24.15;7.70;;;6.70;99.90;;;;;;6240700;23;20298;-67
2024/01/26 08:32:51;;;;;;;14.38;6.90;;;6.80;99.90;;;;;;6241407;23;20012;-65
2024/01/26 08:35:37;;;;;;;14.40;6.35;;;6.90;99.90;;;;;;6239568;23;20345;-65
2024/01/26 08:38:24;;;;;;;18.25;7.05;;;7.00;99.90;;;;;;6221445;23;20417;-65
2024/01/26 08:41:10;;;;;;;17.20;7.68;;;7.00;99.90;;;;;;6241287;23;20091;-66
2024/01/26 08:43:56;;;;;;;16.85;7.30;;;7.10;99.90;;;;;;6241945;23;20404;-67
2024/01/26 08:46:42;;;;;;;12.00;6.25;;;7.20;99.90;;;;;;6254285;23;20030;-67
2024/01/26 08:49:27;;;;;;;15.13;7.03;;;7.20;99.90;;;;;;6263545;23;20008;-67
2024/01/26 08:52:13;;;;;;;17.40;6.95;;;7.30;99.90;;;;;;6220220;23;20008;-67
2024/01/26 08:54:59;;;;;;;17.13;6.93;;;7.30;99.90;;;;;;6240822;23;20484;-67
2024/01/26 08:57:48;;;;;;;10.85;6.18;;;7.50;99.90;;;;;;6241021;23;20016;-67
2024/01/26 09:00:37;;;;;;;16.23;6.18;;;7.50;99.90;;;;;;6241040;23;20005;-67
2024/01/26 09:03:23;;;;;;;17.30;7.70;;;7.50;99.90;;;;;;6240268;23;20086;-67
2024/01/26 09:06:09;;;;;;;15.63;5.97;;;7.60;99.90;;;;;;6241771;23;20151;-67
2024/01/26 09:08:55;;;;;;;13.20;6.38;;;7.70;99.90;;;;;;6241660;23;20348;-67
2024/01/26 09:11:41;;;;;;;14.88;6.53;;;7.70;99.90;;;;;;6241857;23;20449;-67
2024/01/26 09:14:27;;;;;;;12.52;6.47;;;7.80;99.90;;;;;;6239969;23;20005;-66
2024/01/26 09:17:13;;;;;;;13.55;7.63;;;7.80;99.90;;;;;;6240852;23;20014;-67
2024/01/26 09:19:59;;;;;;;17.48;6.95;;;7.90;99.90;;;;;;6239956;23;20019;-67
2024/01/26 09:22:45;;;;;;;14.75;7.30;;;7.90;99.90;;;;;;6239455;23;20461;-67
2024/01/26 09:25:31;;;;;;;17.58;7.47;;;8.00;99.90;;;;;;6239798;23;20433;-67
2024/01/26 09:28:17;;;;;;;14.68;6.78;;;8.00;99.90;;;;;;6218874;23;20008;-67
2024/01/26 09:31:03;;;;;;;19.02;7.97;;;8.00;99.90;;;;;;6240254;23;20433;-67
2024/01/26 09:33:49;;;;;;;12.65;6.60;;;8.10;99.90;;;;;;6241931;23;20004;-67
2024/01/26 09:36:35;;;;;;;15.07;6.57;;;8.20;99.90;;;;;;6240230;23;20098;-67
2024/01/26 09:39:21;;;;;;;16.63;6.95;;;8.20;99.90;;;;;;6241602;23;20027;-68
2024/01/26 09:42:09;;;;;;;14.02;7.13;;;8.30;99.90;;;;;;6217478;23;20333;-68
2024/01/26 09:44:55;;;;;;;21.63;7.03;;;8.30;99.90;;;;;;6241788;23;20016;-67
2024/01/26 09:47:43;;;;;;;12.13;6.40;;;8.40;99.90;;;;;;6239580;23;20523;-69
2024/01/26 09:50:29;;;;;;;18.55;6.75;;;8.50;99.90;;;;;;6239049;23;20484;-70
2024/01/26 09:53:17;;;;;;;15.02;5.88;;;8.60;99.90;;;;;;6239778;23;20004;-70
2024/01/26 09:56:04;;;;;;;12.82;6.15;;;8.70;99.90;;;;;;6241089;23;20420;-70
2024/01/26 09:58:50;;;;;;;17.55;7.05;;;8.80;99.90;;;;;;6242347;23;20024;-69
2024/01/26 10:01:36;;;;;;;15.23;7.28;;;8.90;99.90;;;;;;6241572;23;20012;-69
2024/01/26 10:04:22;;;;;;;15.43;6.75;;;8.90;99.90;;;;;;6242331;23;20012;-70
2024/01/26 10:07:08;;;;;;;15.13;6.70;;;9.00;99.90;;;;;;6241525;23;20058;-69
2024/01/26 10:09:55;;;;;;;21.83;7.80;;;9.10;99.90;;;;;;6241024;23;20016;-70
2024/01/26 10:12:41;;;;;;;20.08;7.05;;;9.10;99.90;;;;;;6242739;23;20011;-70
2024/01/26 10:15:29;;;;;;;17.92;6.57;;;9.20;99.90;;;;;;6241499;23;20012;-69
2024/01/26 10:18:15;;;;;;;16.23;7.18;;;9.20;99.90;;;;;;6242198;23;20074;-69
2024/01/26 10:21:01;;;;;;;15.85;7.22;;;9.20;99.90;;;;;;6221242;23;20015;-69
2024/01/26 10:23:47;;;;;;;13.25;6.32;;;9.30;99.90;;;;;;6243630;23;20012;-69
2024/01/26 10:26:33;;;;;;;17.90;6.88;;;9.30;99.90;;;;;;6244448;23;20011;-69
2024/01/26 10:29:19;;;;;;;18.95;6.35;;;9.40;99.90;;;;;;6243322;23;20012;-67
2024/01/26 10:32:11;;;;;;;11.10;6.03;;;9.40;99.90;;;;;;6241842;23;20012;-68
2024/01/26 10:34:59;;;;;;;13.57;6.38;;;9.40;99.90;;;;;;6241647;23;20008;-68
2024/01/26 10:37:46;;;;;;;12.98;5.63;;;9.50;99.90;;;;;;6241897;23;20020;-68
2024/01/26 10:40:33;;;;;;;15.05;7.00;;;9.50;99.90;;;;;;6243472;23;20440;-68
2024/01/26 10:43:19;;;;;;;15.23;6.85;;;9.60;99.90;;;;;;6241974;23;20019;-68
2024/01/26 10:46:06;;;;;;;15.05;7.30;;;9.70;99.90;;;;;;6242634;23;20009;-68
2024/01/26 10:48:55;;;;;;;12.15;5.85;;;9.70;99.90;;;;;;6240279;23;20016;-68
2024/01/26 10:51:41;;;;;;;18.13;5.63;;;9.70;99.90;;;;;;6241756;23;20354;-68
2024/01/26 10:54:28;;;;;;;13.90;5.88;;;9.80;99.90;;;;;;6241796;23;20019;-68
2024/01/26 10:57:15;;;;;;;13.75;6.25;;;9.90;99.90;;;;;;6242113;23;20015;-68
2024/01/26 11:00:04;;;;;;;16.08;6.68;;;9.90;99.90;;;;;;6241698;23;20445;-68
2024/01/26 11:02:50;;;;;;;12.57;6.00;;;10.00;99.90;;;;;;6238309;23;20016;-68
2024/01/26 11:05:36;;;;;;;14.57;6.05;;;10.10;99.90;;;;;;6240800;23;20522;-67
2024/01/26 11:08:26;;;;;;;9.50;5.68;;;10.10;99.90;;;;;;6241055;23;20008;-67
2024/01/26 11:11:15;;;;;;;10.30;5.28;;;10.20;99.90;;;;;;6240561;23;20445;-68
2024/01/26 11:14:02;;;;;;;15.43;6.18;;;10.30;99.90;;;;;;6243183;23;20079;-67
2024/01/26 11:16:48;;;;;;;9.65;5.40;;;10.30;99.90;;;;;;6242829;23;20445;-68
2024/01/26 11:19:34;;;;;;;13.55;6.05;;;10.40;99.90;;;;;;6242703;23;20421;-68
2024/01/26 11:22:20;;;;;;;11.90;6.63;;;10.40;99.90;;;;;;6242501;23;20376;-68
2024/01/26 11:25:06;;;;;;;13.55;6.00;;;10.50;99.90;;;;;;6243795;23;20008;-68
2024/01/26 11:27:59;;;;;;;12.15;6.60;;;10.60;99.90;;;;;;6238887;23;20016;-68
2024/01/26 11:30:57;;;;;;;12.60;4.65;;;10.60;99.90;;;;;;6239500;23;20107;-68
2024/01/26 11:33:43;;;;;;;11.35;5.00;;;10.60;99.90;;;;;;6241296;23;20023;-68
2024/01/26 11:36:32;;;;;;;8.77;4.78;;;10.60;99.90;;;;;;6240502;23;20008;-68
2024/01/26 11:39:19;;;;;;;10.50;4.68;;;10.60;99.90;;;;;;6240490;23;20357;-68
2024/01/26 11:42:12;;;;;;;12.65;5.35;;;10.60;99.90;;;;;;6240948;23;20036;-68
2024/01/26 11:45:07;;;;;;;11.70;5.07;;;10.60;99.90;;;;;;6243585;23;20105;-67
2024/01/26 11:47:53;;;;;;;;;;;10.60;99.90;;;;;;6239288;23;20127;-68
2024/01/26 11:50:44;;;;;;;8.98;4.55;;;10.70;99.90;;;;;;6241584;23;19907;-67
2024/01/26 11:53:30;;;;;;;10.63;4.55;;;10.70;99.90;;;;;;6246069;23;20004;-68
2024/01/26 11:56:16;;;;;;;9.18;5.03;;;10.70;99.90;;;;;;6258877;23;20197;-67
2024/01/26 11:59:02;;;;;;;8.32;4.85;;;10.70;99.90;;;;;;6244921;23;20030;-68
2024/01/26 12:01:48;;;;;;;7.78;4.43;;;10.70;99.90;;;;;;6241436;23;20143;-67
2024/01/26 12:04:37;;;;;;;14.07;5.53;;;10.70;99.90;;;;;;6242791;23;20012;-69
2024/01/26 12:07:23;;;;;;;10.68;4.75;;;10.70;99.90;;;;;;6220433;23;20008;-69
2024/01/26 12:10:13;;;;;;;10.88;4.88;;;10.80;99.90;;;;;;6241827;23;20088;-69
2024/01/26 12:12:59;;;;;;;10.63;5.00;;;10.80;99.90;;;;;;6218130;23;20019;-69
2024/01/26 12:15:46;;;;;;;12.00;5.05;;;10.80;99.90;;;;;;6241523;23;20012;-69
2024/01/26 12:18:32;;;;;;;10.07;4.80;;;10.80;99.90;;;;;;6219935;23;20020;-70
2024/01/26 12:21:18;;;;;;;9.77;5.35;;;10.80;99.90;;;;;;6242219;23;20015;-70
2024/01/26 12:24:11;;;;;;;10.02;4.93;;;10.80;99.90;;;;;;6240185;23;20015;-70
2024/01/26 12:26:57;;;;;;;10.65;5.35;;;10.80;99.90;;;;;;6240708;23;20086;-70
2024/01/26 12:29:46;;;;;;;10.50;4.65;;;10.80;99.90;;;;;;6241854;23;20019;-72
2024/01/26 12:32:35;;;;;;;10.00;5.63;;;10.80;99.90;;;;;;6240236;23;20015;-70
2024/01/26 12:35:21;;;;;;;9.40;5.13;;;10.80;99.90;;;;;;6240934;23;20019;-69
2024/01/26 12:38:10;;;;;;;10.52;4.82;;;10.70;99.90;;;;;;6219693;23;20020;-69
2024/01/26 12:40:57;;;;;;;15.13;6.10;;;10.70;99.90;;;;;;6242616;23;20440;-69
2024/01/26 12:43:43;;;;;;;11.57;5.65;;;10.70;99.90;;;;;;6218328;23;20012;-69
2024/01/26 12:46:29;;;;;;;12.63;5.68;;;10.70;99.90;;;;;;6239766;23;20024;-70
2024/01/26 12:49:15;;;;;;;7.97;4.50;;;10.70;99.90;;;;;;6240520;23;20143;-70
2024/01/26 12:52:02;;;;;;;8.13;5.18;;;10.70;99.90;;;;;;6220093;23;20012;-70
2024/01/26 12:54:52;;;;;;;8.63;4.57;;;10.70;99.90;;;;;;6241093;23;20069;-68
2024/01/26 12:57:38;;;;;;;10.23;5.28;;;10.70;99.90;;;;;;6241099;23;20338;-70
2024/01/26 13:00:24;;;;;;;10.38;5.70;;;10.70;99.90;;;;;;6219519;23;20099;-69
2024/01/26 13:03:10;;;;;;;9.35;5.60;;;10.70;99.90;;;;;;6218077;23;20385;-69
2024/01/26 13:05:56;;;;;;;9.20;5.80;;;10.60;99.90;;;;;;6241564;23;20004;-69
2024/01/26 13:08:42;;;;;;;9.60;4.90;;;10.70;99.90;;;;;;6241224;23;20012;-73
2024/01/26 13:11:28;;;;;;;8.55;4.65;;;10.70;99.90;;;;;;6244564;23;20009;-72
2024/01/26 13:14:14;;;;;;;9.23;5.35;;;10.70;99.90;;;;;;6242375;23;20519;-70
2024/01/26 13:17:00;;;;;;;7.72;4.68;;;10.70;99.90;;;;;;6240608;23;20409;-74
2024/01/26 13:19:46;;;;;;;7.72;4.45;;;10.70;99.90;;;;;;6239694;23;20105;-73
2024/01/26 13:22:32;;;;;;;8.48;4.45;;;10.70;99.90;;;;;;6241594;23;20023;-71
2024/01/26 13:25:18;;;;;;;6.95;4.53;;;10.70;99.90;;;;;;6241637;23;20011;-71
2024/01/26 13:28:04;;;;;;;7.95;4.57;;;10.70;99.90;;;;;;6239284;23;20012;-71
2024/01/26 13:30:54;;;;;;;6.53;4.20;;;10.80;99.90;;;;;;6239046;23;20038;-71
2024/01/26 13:33:40;;;;;;;6.50;4.22;;;10.80;99.90;;;;;;6241231;23;20397;-71
2024/01/26 13:36:26;;;;;;;6.38;4.00;;;10.80;99.90;;;;;;6218591;23;20004;-71
2024/01/26 13:39:13;;;;;;;5.40;4.10;;;10.90;99.90;;;;;;6243586;23;20020;-71
2024/01/26 13:42:00;;;;;;;8.55;3.90;;;10.90;99.90;;;;;;6242559;23;20020;-71
2024/01/26 13:44:47;;;;;;;5.93;3.95;;;10.90;99.90;;;;;;6242977;23;20012;-71
2024/01/26 13:47:33;;;;;;;6.68;3.78;;;10.90;99.90;;;;;;6244317;23;20020;-72
2024/01/26 13:50:19;;;;;;;5.32;3.63;;;11.00;99.90;;;;;;6240865;23;20023;-71
2024/01/26 13:53:05;;;;;;;8.15;4.53;;;11.00;99.90;;;;;;6243696;23;20008;-70
2024/01/26 13:55:51;;;;;;;5.30;4.05;;;11.00;99.90;;;;;;6221264;23;20095;-70
2024/01/26 13:58:37;;;;;;;5.82;3.90;;;11.00;99.90;;;;;;6220404;23;20339;-70
2024/01/26 14:01:23;;;;;;;5.90;3.45;;;11.10;99.90;;;;;;6242417;23;20012;-70
2024/01/26 14:04:09;;;;;;;4.95;3.42;;;11.10;99.90;;;;;;6243467;23;20016;-70
2024/01/26 14:06:56;;;;;;;6.30;4.28;;;11.20;99.90;;;;;;6221012;23;20062;-70
2024/01/26 14:09:42;;;;;;;5.80;4.15;;;11.20;99.90;;;;;;6241730;23;20015;-70
2024/01/26 14:12:28;;;;;;;6.32;3.88;;;11.20;99.90;;;;;;6242667;23;20012;-68
2024/01/26 14:15:14;;;;;;;6.47;3.72;;;11.30;99.90;;;;;;6244230;23;20441;-74
2024/01/26 14:18:00;;;;;;;7.88;3.17;;;11.30;99.90;;;;;;6241860;23;20026;-76
2024/01/26 14:20:47;;;;;;;4.03;3.05;;;11.30;99.90;;;;;;6241327;23;20122;-71
2024/01/26 14:23:33;;;;;;;5.07;2.80;;;11.30;99.90;;;;;;6243659;23;20019;-73